createdAt,value
2019-05-07T00:00:36.944Z,79.96
2019-05-07T00:01:36.943Z,79.75
2019-05-07T00:02:36.927Z,79.34
2019-05-07T00:03:36.919Z,79.96
2019-05-07T00:04:36.907Z,79.96
2019-05-07T00:05:36.891Z,79.96
2019-05-07T00:06:36.891Z,80.16
2019-05-07T00:07:36.873Z,80.37
2019-05-07T00:08:36.860Z,80.51
2019-05-07T00:09:36.848Z,80.51
2019-05-07T00:10:36.841Z,80.30
2019-05-07T00:11:36.838Z,80.93
2019-05-07T00:12:36.816Z,80.20
2019-05-07T00:13:36.810Z,80.62
2019-05-07T00:14:36.803Z,80.41
2019-05-07T00:15:36.784Z,80.41
2019-05-07T00:16:36.789Z,80.30
2019-05-07T00:17:36.774Z,79.90
2019-05-07T00:18:36.776Z,80.20
2019-05-07T00:19:36.740Z,80.41
2019-05-07T00:20:36.729Z,80.10
2019-05-07T00:21:36.732Z,80.20
2019-05-07T00:22:36.710Z,80.51
2019-05-07T00:23:36.699Z,80.41
2019-05-07T00:24:36.687Z,80.30
2019-05-07T00:25:36.676Z,80.41
2019-05-07T00:26:36.676Z,80.41
2019-05-07T00:27:36.654Z,80.72
2019-05-07T00:28:36.657Z,80.72
2019-05-07T00:29:36.634Z,80.72
2019-05-07T00:30:36.623Z,80.41
2019-05-07T00:31:36.624Z,80.72
2019-05-07T00:32:36.600Z,81.27
2019-05-07T00:33:36.591Z,80.65
2019-05-07T00:34:36.593Z,80.82
2019-05-07T00:35:36.570Z,81.23
2019-05-07T00:36:36.569Z,81.17
2019-05-07T00:37:36.557Z,81.89
2019-05-07T00:38:36.536Z,81.37
2019-05-07T00:39:36.541Z,81.58
2019-05-07T00:40:36.524Z,81.68
2019-05-07T00:41:36.515Z,81.48
2019-05-07T00:42:36.496Z,81.51
2019-05-07T00:43:36.486Z,81.93
2019-05-07T00:44:36.473Z,81.93
2019-05-07T00:45:36.463Z,81.31
2019-05-07T00:46:36.473Z,81.41
2019-05-07T00:47:36.440Z,81.31
2019-05-07T00:48:36.429Z,81.82
2019-05-07T00:49:36.419Z,81.51
2019-05-07T00:50:36.407Z,82.45
2019-05-07T00:51:36.408Z,82.24
2019-05-07T00:52:36.392Z,82.07
2019-05-07T00:53:36.379Z,82.48
2019-05-07T00:54:36.366Z,81.72
2019-05-07T00:55:36.356Z,82.24
2019-05-07T00:56:36.354Z,82.48
2019-05-07T00:57:36.334Z,81.76
2019-05-07T00:58:36.329Z,81.82
2019-05-07T00:59:36.313Z,82.14
2019-05-07T01:00:36.308Z,81.93
2019-05-07T01:01:36.347Z,81.96
2019-05-07T01:02:36.287Z,82.17
2019-05-07T01:03:36.269Z,81.66
2019-05-07T01:04:36.268Z,82.17
2019-05-07T01:05:36.247Z,82.48
2019-05-07T01:06:36.239Z,82.17
2019-05-07T01:07:36.245Z,82.17
2019-05-07T01:08:36.216Z,82.28
2019-05-07T01:09:36.205Z,82.79
2019-05-07T01:10:36.208Z,83.00
2019-05-07T01:11:36.185Z,83.14
2019-05-07T01:12:36.191Z,83.04
2019-05-07T01:13:36.163Z,83.65
2019-05-07T01:14:36.153Z,83.45
2019-05-07T01:15:36.142Z,83.45
2019-05-07T01:16:36.159Z,83.76
2019-05-07T01:17:36.137Z,84.00
2019-05-07T01:18:36.112Z,83.65
2019-05-07T01:19:36.113Z,84.21
2019-05-07T01:20:36.089Z,84.63
2019-05-07T01:21:36.078Z,84.21
2019-05-07T01:22:36.087Z,84.31
2019-05-07T01:23:36.057Z,84.31
2019-05-07T01:24:36.056Z,85.04
2019-05-07T01:25:36.049Z,84.11
2019-05-07T01:26:36.027Z,84.31
2019-05-07T01:27:36.026Z,84.21
2019-05-07T01:28:36.014Z,84.52
2019-05-07T01:29:35.994Z,84.31
2019-05-07T01:30:35.985Z,85.18
2019-05-07T01:31:35.982Z,84.97
2019-05-07T01:32:35.983Z,85.08
2019-05-07T01:33:35.953Z,85.08
2019-05-07T01:34:35.948Z,85.39
2019-05-07T01:35:35.933Z,85.18
2019-05-07T01:36:35.931Z,85.39
2019-05-07T01:37:35.938Z,85.08
2019-05-07T01:38:35.900Z,85.18
2019-05-07T01:39:35.891Z,85.28
2019-05-07T01:40:35.891Z,85.28
2019-05-07T01:41:35.869Z,84.66
2019-05-07T01:42:36.684Z,84.00
2019-05-07T01:43:35.873Z,84.11
2019-05-07T01:44:35.846Z,84.52
2019-05-07T01:45:45.408Z,84.52
2019-05-07T01:46:36.835Z,84.36
2019-05-07T01:47:35.806Z,84.36
2019-05-07T01:48:35.812Z,84.15
2019-05-07T01:49:35.792Z,84.66
2019-05-07T01:50:35.787Z,85.08
2019-05-07T01:51:35.763Z,84.97
2019-05-07T01:52:35.768Z,85.08
2019-05-07T01:53:35.758Z,84.25
2019-05-07T01:54:35.748Z,84.66
2019-05-07T01:55:35.743Z,84.36
2019-05-07T01:56:35.720Z,84.15
2019-05-07T01:57:35.701Z,84.36
2019-05-07T01:58:35.707Z,83.80
2019-05-07T01:59:35.683Z,84.31
2019-05-07T02:00:35.670Z,83.73
2019-05-07T02:01:36.007Z,83.94
2019-05-07T02:02:35.656Z,84.00
2019-05-07T02:03:35.648Z,84.36
2019-05-07T02:04:35.634Z,84.25
2019-05-07T02:05:35.616Z,84.19
2019-05-07T02:06:35.610Z,85.02
2019-05-07T02:07:35.614Z,85.16
2019-05-07T02:08:35.618Z,85.26
2019-05-07T02:09:35.573Z,84.53
2019-05-07T02:10:35.562Z,84.43
2019-05-07T02:11:35.552Z,83.98
2019-05-07T02:12:35.547Z,83.77
2019-05-07T02:13:35.564Z,83.46
2019-05-07T02:14:35.527Z,83.32
2019-05-07T02:15:35.511Z,83.01
2019-05-07T02:16:35.509Z,82.90
2019-05-07T02:17:35.490Z,83.11
2019-05-07T02:18:35.480Z,82.95
2019-05-07T02:19:35.480Z,83.87
2019-05-07T02:20:35.467Z,83.81
2019-05-07T02:21:35.448Z,84.01
2019-05-07T02:22:35.438Z,85.50
2019-05-07T02:23:35.426Z,85.55
2019-05-07T02:24:35.442Z,86.58
2019-05-07T02:25:35.406Z,87.04
2019-05-07T02:26:35.399Z,88.11
2019-05-07T02:27:35.384Z,87.90
2019-05-07T02:28:35.374Z,87.70
2019-05-07T02:29:38.124Z,87.70
2019-05-07T02:30:35.501Z,87.80
2019-05-07T02:31:35.344Z,88.59
2019-05-07T02:32:35.337Z,87.35
2019-05-07T02:33:35.382Z,87.14
2019-05-07T02:34:35.315Z,86.83
2019-05-07T02:35:35.333Z,87.66
2019-05-07T02:36:35.290Z,87.76
2019-05-07T02:37:47.246Z,87.76
2019-05-07T02:38:36.276Z,87.14
2019-05-07T02:39:35.293Z,86.93
2019-05-07T02:40:35.247Z,86.47
2019-05-07T02:41:35.249Z,85.75
2019-05-07T02:42:35.228Z,85.82
2019-05-07T02:43:35.218Z,86.02
2019-05-07T02:44:35.210Z,85.75
2019-05-07T02:45:35.195Z,85.50
2019-05-07T02:46:36.458Z,85.61
2019-05-07T02:47:35.173Z,85.75
2019-05-07T02:48:35.162Z,85.96
2019-05-07T02:49:35.152Z,85.55
2019-05-07T02:50:35.151Z,85.40
2019-05-07T02:51:35.133Z,85.30
2019-05-07T02:52:35.133Z,85.40
2019-05-07T02:53:35.110Z,85.19
2019-05-07T02:54:35.098Z,85.09
2019-05-07T02:55:35.098Z,85.55
2019-05-07T02:56:35.100Z,85.24
2019-05-07T02:57:35.135Z,85.34
2019-05-07T02:58:35.060Z,85.44
2019-05-07T02:59:35.046Z,85.34
2019-05-07T03:00:35.036Z,85.34
2019-05-07T03:01:35.025Z,84.92
2019-05-07T03:02:35.029Z,85.44
2019-05-07T03:03:35.015Z,84.61
2019-05-07T03:04:34.994Z,84.20
2019-05-07T03:05:35.305Z,84.61
2019-05-07T03:06:34.971Z,84.20
2019-05-07T03:07:34.962Z,83.85
2019-05-07T03:08:34.987Z,84.72
2019-05-07T03:09:34.941Z,85.55
2019-05-07T03:10:34.936Z,86.41
2019-05-07T03:11:34.920Z,86.93
2019-05-07T03:12:34.910Z,87.04
2019-05-07T03:13:34.897Z,87.59
2019-05-07T03:14:34.908Z,87.95
2019-05-07T03:15:34.877Z,88.20
2019-05-07T03:16:42.484Z,89.69
2019-05-07T03:17:35.858Z,90.41
2019-05-07T03:18:34.846Z,90.35
2019-05-07T03:19:34.849Z,91.22
2019-05-07T03:20:34.839Z,91.78
2019-05-07T03:21:34.823Z,92.61
2019-05-07T03:22:34.802Z,92.86
2019-05-07T03:23:34.812Z,93.70
2019-05-07T03:24:34.831Z,94.53
2019-05-07T03:25:34.801Z,94.84
2019-05-07T03:26:34.763Z,94.99
2019-05-07T03:27:34.768Z,94.47
2019-05-07T03:28:34.741Z,94.41
2019-05-07T03:29:34.730Z,95.03
2019-05-07T03:30:36.265Z,94.76
2019-05-07T03:31:36.146Z,94.24
2019-05-07T03:32:38.158Z,94.39
2019-05-07T03:33:36.624Z,94.54
2019-05-07T03:34:36.978Z,95.37
2019-05-07T03:35:37.186Z,95.58
2019-05-07T03:36:35.509Z,95.73
2019-05-07T03:37:36.393Z,96.04
2019-05-07T03:38:34.637Z,97.25
2019-05-07T03:39:34.631Z,97.19
2019-05-07T03:40:34.624Z,97.61
2019-05-07T03:41:34.604Z,97.61
2019-05-07T03:44:03.639Z,97.65
2019-05-07T03:52:13.656Z,98.53
2019-05-07T03:58:14.582Z,98.47
2019-05-07T04:13:34.316Z,99.99
2019-05-07T04:14:42.894Z,99.99
2019-05-07T04:17:13.121Z,99.99
2019-05-07T05:13:20.142Z,84.64
2019-05-07T05:14:13.694Z,83.81
2019-05-07T05:15:12.662Z,83.09
2019-05-07T05:16:12.595Z,83.61
2019-05-07T05:17:12.990Z,83.61
2019-05-07T05:18:12.705Z,83.71
2019-05-07T05:19:12.579Z,82.57
2019-05-07T05:20:13.132Z,82.43
2019-05-07T05:21:12.080Z,82.12
2019-05-07T05:22:12.795Z,82.12
2019-05-07T05:23:12.109Z,82.90
2019-05-07T05:24:12.617Z,82.29
2019-05-07T05:25:12.127Z,82.29
2019-05-07T05:26:12.529Z,81.87
2019-05-07T05:27:12.215Z,82.29
2019-05-07T05:28:12.382Z,81.46
2019-05-07T05:29:12.110Z,81.52
2019-05-07T05:30:12.469Z,80.84
2019-05-07T05:31:12.648Z,81.11
2019-05-07T05:32:12.002Z,80.08
2019-05-07T05:33:12.596Z,80.49
2019-05-07T05:34:12.956Z,79.87
2019-05-07T05:35:12.640Z,80.39
2019-05-07T05:36:12.661Z,79.73
2019-05-07T05:37:11.954Z,80.25
2019-05-07T05:38:12.688Z,79.94
2019-05-07T05:39:13.037Z,80.15
2019-05-07T05:40:12.328Z,79.08
2019-05-07T05:41:12.359Z,78.77
2019-05-07T05:42:11.859Z,78.31
2019-05-07T05:43:12.700Z,78.31
2019-05-07T05:44:11.875Z,78.14
2019-05-07T05:45:12.392Z,78.94
2019-05-07T05:46:12.140Z,78.63
2019-05-07T05:47:11.954Z,77.18
2019-05-07T05:48:13.347Z,76.42
2019-05-07T05:49:12.145Z,77.01
2019-05-07T05:50:13.498Z,74.71
2019-05-07T05:51:11.877Z,75.22
2019-05-07T05:52:12.462Z,75.22
2019-05-07T05:53:12.252Z,75.08
2019-05-07T05:54:12.673Z,74.05
2019-05-07T05:55:11.989Z,74.12
2019-05-07T05:56:11.982Z,74.08
2019-05-07T05:57:12.249Z,74.05
2019-05-07T05:58:12.224Z,71.34
2019-05-07T05:59:12.122Z,70.49
2019-05-07T06:00:12.631Z,68.78
2019-05-07T06:01:12.956Z,66.84
2019-05-07T06:02:12.122Z,67.43
2019-05-07T06:03:11.914Z,64.83
2019-05-07T06:04:12.461Z,64.32
2019-05-07T06:05:12.491Z,64.13
2019-05-07T06:06:12.672Z,61.18
2019-05-07T06:07:12.244Z,62.04
2019-05-07T06:08:12.471Z,59.84
2019-05-07T06:09:12.326Z,58.72
2019-05-07T06:10:12.721Z,58.92
2019-05-07T06:11:11.857Z,59.17
2019-05-07T06:12:12.546Z,56.76
2019-05-07T06:13:12.395Z,55.53
2019-05-07T06:14:10.476Z,58.80
2019-05-07T06:15:12.539Z,58.59
2019-05-07T06:16:12.438Z,60.54
2019-05-07T06:17:12.801Z,56.47
2019-05-07T06:18:20.431Z,57.31
2019-05-07T06:19:12.965Z,56.70
2019-05-07T06:20:12.205Z,55.48
2019-05-07T06:21:12.468Z,59.96
2019-05-07T06:22:12.649Z,55.28
2019-05-07T06:23:12.693Z,57.82
2019-05-07T06:24:11.892Z,58.38
2019-05-07T06:25:10.416Z,52.98
2019-05-07T06:26:12.712Z,56.09
2019-05-07T06:27:12.266Z,58.03
2019-05-07T06:28:12.488Z,56.52
2019-05-07T06:29:11.912Z,57.75
2019-05-07T06:30:12.038Z,57.26
2019-05-07T06:31:12.461Z,59.89
2019-05-07T06:32:12.110Z,58.09
2019-05-07T06:33:12.351Z,59.23
2019-05-07T06:34:12.272Z,61.18
2019-05-07T06:35:12.305Z,61.21
2019-05-07T06:36:12.372Z,62.10
2019-05-07T06:37:11.857Z,60.92
2019-05-07T06:38:12.293Z,60.38
2019-05-07T06:39:12.474Z,59.91
2019-05-07T06:40:12.136Z,56.32
2019-05-07T06:41:12.151Z,57.72
2019-05-07T06:42:12.546Z,57.44
2019-05-07T06:43:12.296Z,59.86
2019-05-07T06:44:10.167Z,57.49
2019-05-07T06:45:12.244Z,54.44
2019-05-07T06:46:12.424Z,54.82
2019-05-07T06:47:10.120Z,55.58
2019-05-07T06:48:12.482Z,55.12
2019-05-07T06:49:10.099Z,56.09
2019-05-07T06:50:12.379Z,53.09
2019-05-07T06:51:12.416Z,54.92
2019-05-07T06:52:12.130Z,55.22
2019-05-07T06:53:12.032Z,56.84
2019-05-07T06:54:10.042Z,54.69
2019-05-07T06:55:12.078Z,54.82
2019-05-07T06:56:12.050Z,55.20
2019-05-07T06:57:10.007Z,56.31
2019-05-07T06:58:12.117Z,56.62
2019-05-07T06:59:09.992Z,54.41
2019-05-07T07:00:11.901Z,54.94
2019-05-07T07:01:12.061Z,57.18
2019-05-07T07:02:09.985Z,60.22
2019-05-07T07:03:09.954Z,56.95
2019-05-07T07:04:09.932Z,57.23
2019-05-07T07:05:12.003Z,57.23
2019-05-07T07:06:12.024Z,58.01
2019-05-07T07:07:24.060Z,57.07
2019-05-07T07:08:12.455Z,56.29
2019-05-07T07:09:09.896Z,54.44
2019-05-07T07:10:11.891Z,54.31
2019-05-07T07:11:09.857Z,57.40
2019-05-07T07:12:09.842Z,53.19
2019-05-07T07:13:11.846Z,52.69
2019-05-07T07:14:11.450Z,52.11
2019-05-07T07:15:12.076Z,53.12
2019-05-07T07:16:09.799Z,52.13
2019-05-07T07:17:09.789Z,51.98
2019-05-07T07:18:12.142Z,53.60
2019-05-07T07:19:09.768Z,56.08
2019-05-07T07:20:09.760Z,53.50
2019-05-07T07:21:12.254Z,53.05
2019-05-07T07:22:09.734Z,53.00
2019-05-07T07:23:11.766Z,51.18
2019-05-07T07:24:09.721Z,49.56
2019-05-07T07:25:11.755Z,51.30
2019-05-07T07:26:09.690Z,50.52
2019-05-07T07:27:09.703Z,50.72
2019-05-07T07:28:09.669Z,50.42
2019-05-07T07:29:09.668Z,51.28
2019-05-07T07:30:09.648Z,55.69
2019-05-07T07:31:09.659Z,52.97
2019-05-07T07:32:09.626Z,54.36
2019-05-07T07:33:12.029Z,52.76
2019-05-07T07:34:09.613Z,53.85
2019-05-07T07:35:09.597Z,51.83
2019-05-07T07:36:11.906Z,52.34
2019-05-07T07:37:13.498Z,49.21
2019-05-07T07:38:11.808Z,52.41
2019-05-07T07:39:09.564Z,50.78
2019-05-07T07:40:09.540Z,51.20
2019-05-07T07:41:09.526Z,52.69
2019-05-07T07:42:09.516Z,49.64
2019-05-07T07:43:09.526Z,52.72
2019-05-07T07:44:09.503Z,49.09
2019-05-07T07:45:09.483Z,49.41
2019-05-07T07:46:09.475Z,50.52
2019-05-07T07:47:09.462Z,52.19
2019-05-07T07:48:09.451Z,51.50
2019-05-07T07:49:14.065Z,49.08
2019-05-07T07:50:12.827Z,54.38
2019-05-07T07:51:09.413Z,50.68
2019-05-07T07:52:09.408Z,48.94
2019-05-07T07:53:09.401Z,47.74
2019-05-07T07:54:09.406Z,49.15
2019-05-07T07:55:09.372Z,47.94
2019-05-07T07:56:09.382Z,48.79
2019-05-07T07:57:09.354Z,50.35
2019-05-07T07:58:09.340Z,50.51
2019-05-07T07:59:09.346Z,51.99
2019-05-07T08:00:09.327Z,46.64
2019-05-07T08:01:09.311Z,49.55
2019-05-07T08:02:09.299Z,50.35
2019-05-07T08:03:09.364Z,47.26
2019-05-07T08:04:09.296Z,46.91
2019-05-07T08:05:09.281Z,47.08
2019-05-07T08:06:09.251Z,46.76
2019-05-07T08:07:09.242Z,45.72
2019-05-07T08:08:09.231Z,49.15
2019-05-07T08:09:09.247Z,49.60
2019-05-07T08:10:09.215Z,47.97
2019-05-07T08:11:09.264Z,46.06
2019-05-07T08:12:09.195Z,48.95
2019-05-07T08:13:09.175Z,49.55
2019-05-07T08:14:09.173Z,47.62
2019-05-07T08:15:17.249Z,43.50
2019-05-07T08:16:10.149Z,49.55
2019-05-07T08:17:09.167Z,51.04
2019-05-07T08:18:09.161Z,45.37
2019-05-07T08:19:21.368Z,42.78
2019-05-07T08:20:10.119Z,44.32
2019-05-07T08:21:09.093Z,48.05
2019-05-07T08:22:09.091Z,45.45
2019-05-07T08:23:09.068Z,47.43
2019-05-07T08:24:09.080Z,50.52
2019-05-07T08:25:09.051Z,52.16
2019-05-07T08:26:09.033Z,51.07
2019-05-07T08:27:09.028Z,53.20
2019-05-07T08:28:09.017Z,52.76
2019-05-07T08:29:09.004Z,49.76
2019-05-07T08:30:09.001Z,49.48
2019-05-07T08:31:08.983Z,51.28
2019-05-07T08:32:08.968Z,49.24
2019-05-07T08:33:09.820Z,49.21
2019-05-07T08:34:08.951Z,50.88
2019-05-07T08:35:08.952Z,47.11
2019-05-07T08:36:08.932Z,46.86
2019-05-07T08:37:08.920Z,46.36
2019-05-07T08:38:08.913Z,46.88
2019-05-07T08:39:08.913Z,47.85
2019-05-07T08:40:08.887Z,47.85
2019-05-07T08:41:08.868Z,51.14
2019-05-07T08:42:08.858Z,45.21
2019-05-07T08:43:08.853Z,47.04
2019-05-07T08:44:12.299Z,51.56
2019-05-07T08:45:11.841Z,45.35
2019-05-07T08:46:08.877Z,50.56
2019-05-07T08:47:08.805Z,47.52
2019-05-07T08:48:08.792Z,49.48
2019-05-07T08:49:08.779Z,46.04
2019-05-07T08:50:08.779Z,46.11
2019-05-07T08:51:08.765Z,47.91
2019-05-07T08:52:08.820Z,47.91
2019-05-07T08:53:08.746Z,45.60
2019-05-07T08:54:08.726Z,49.41
2019-05-07T08:55:08.725Z,47.49
2019-05-07T08:56:08.710Z,44.80
2019-05-07T08:57:08.706Z,50.74
2019-05-07T08:58:08.690Z,48.96
2019-05-07T08:59:08.734Z,44.20
2019-05-07T09:00:08.684Z,52.14
2019-05-07T09:01:08.651Z,52.80
2019-05-07T09:02:08.642Z,50.68
2019-05-07T09:03:19.302Z,46.97
2019-05-07T09:04:09.616Z,47.60
2019-05-07T09:05:09.315Z,47.52
2019-05-07T09:06:08.606Z,48.75
2019-05-07T09:07:08.583Z,49.07
2019-05-07T09:08:08.580Z,50.58
2019-05-07T09:09:08.565Z,54.17
2019-05-07T09:10:08.563Z,50.23
2019-05-07T09:11:08.577Z,49.33
2019-05-07T09:12:08.531Z,48.75
2019-05-07T09:13:08.522Z,50.33
2019-05-07T09:14:08.508Z,51.04
2019-05-07T09:15:08.499Z,50.21
2019-05-07T09:16:08.502Z,47.90
2019-05-07T09:17:08.519Z,50.41
2019-05-07T09:18:08.469Z,48.80
2019-05-07T09:19:08.469Z,50.76
2019-05-07T09:20:09.274Z,49.07
2019-05-07T09:21:08.467Z,52.49
2019-05-07T09:22:08.468Z,50.60
2019-05-07T09:23:08.408Z,53.55
2019-05-07T09:24:08.418Z,51.26
2019-05-07T09:25:08.385Z,49.07
2019-05-07T09:26:08.386Z,53.02
2019-05-07T09:27:08.364Z,53.12
2019-05-07T09:28:08.361Z,52.67
2019-05-07T09:29:08.346Z,50.98
2019-05-07T09:30:08.333Z,52.51
2019-05-07T09:31:08.368Z,53.12
2019-05-07T09:32:08.331Z,54.23
2019-05-07T09:33:08.342Z,54.41
2019-05-07T09:34:08.291Z,53.96
2019-05-07T09:35:08.278Z,54.68
2019-05-07T09:36:08.293Z,52.51
2019-05-07T09:37:08.256Z,53.70
2019-05-07T09:38:08.287Z,51.34
2019-05-07T09:39:08.329Z,52.19
2019-05-07T09:40:08.230Z,48.17
2019-05-07T09:41:08.228Z,50.08
2019-05-07T09:42:08.202Z,50.38
2019-05-07T09:43:08.190Z,51.36
2019-05-07T09:44:08.179Z,50.66
2019-05-07T09:45:08.262Z,49.63
2019-05-07T09:46:08.199Z,51.64
2019-05-07T09:47:08.148Z,49.28
2019-05-07T09:48:08.141Z,50.66
2019-05-07T09:49:08.123Z,47.75
2019-05-07T09:50:08.985Z,50.36
2019-05-07T09:51:08.114Z,48.75
2019-05-07T09:52:08.108Z,48.53
2019-05-07T09:53:08.084Z,44.12
2019-05-07T09:54:08.074Z,48.88
2019-05-07T09:55:14.856Z,47.67
2019-05-07T09:56:09.069Z,42.03
2019-05-07T09:57:22.743Z,43.99
2019-05-07T09:58:09.034Z,49.82
2019-05-07T09:59:08.050Z,46.17
2019-05-07T10:00:08.010Z,45.78
2019-05-07T10:01:08.024Z,52.74
2019-05-07T10:02:07.989Z,48.14
2019-05-07T10:03:07.974Z,46.41
2019-05-07T10:04:07.965Z,44.91
2019-05-07T10:05:07.956Z,45.61
2019-05-07T10:06:07.969Z,49.05
2019-05-07T10:07:07.941Z,43.60
2019-05-07T10:08:07.920Z,43.40
2019-05-07T10:09:07.910Z,43.62
2019-05-07T10:10:07.899Z,46.43
2019-05-07T10:11:07.891Z,49.11
2019-05-07T10:12:07.907Z,47.90
2019-05-07T10:13:07.903Z,53.25
2019-05-07T10:14:07.858Z,50.48
2019-05-07T10:15:07.848Z,51.06
2019-05-07T10:16:07.937Z,50.51
2019-05-07T10:17:07.843Z,47.86
2019-05-07T10:18:07.810Z,49.53
2019-05-07T10:19:07.811Z,49.98
2019-05-07T10:20:19.292Z,45.97
2019-05-07T10:21:08.808Z,49.56
2019-05-07T10:22:07.781Z,47.15
2019-05-07T10:23:07.758Z,48.66
2019-05-07T10:24:07.749Z,48.03
2019-05-07T10:25:07.736Z,43.98
2019-05-07T10:26:07.729Z,49.44
2019-05-07T10:27:07.758Z,40.81
2019-05-07T10:28:07.706Z,45.50
2019-05-07T10:29:07.696Z,39.69
2019-05-07T10:30:07.682Z,44.20
2019-05-07T10:31:07.678Z,43.01
2019-05-07T10:32:07.676Z,45.04
2019-05-07T10:33:07.699Z,45.42
2019-05-07T10:34:07.680Z,38.91
2019-05-07T10:35:07.634Z,40.37
2019-05-07T10:36:07.620Z,45.42
2019-05-07T10:37:07.619Z,45.98
2019-05-07T10:38:07.598Z,44.66
2019-05-07T10:39:07.593Z,41.41
2019-05-07T10:40:07.597Z,45.59
2019-05-07T10:41:07.591Z,40.88
2019-05-07T10:42:07.579Z,39.74
2019-05-07T10:43:07.549Z,37.06
2019-05-07T10:44:07.553Z,37.76
2019-05-07T10:45:07.537Z,38.49
2019-05-07T10:46:07.514Z,38.91
2019-05-07T10:47:07.591Z,45.20
2019-05-07T10:48:07.527Z,43.09
2019-05-07T10:49:07.509Z,42.60
2019-05-07T10:50:07.473Z,38.67
2019-05-07T10:51:07.466Z,39.93
2019-05-07T10:52:07.450Z,45.50
2019-05-07T10:53:07.453Z,43.49
2019-05-07T10:54:07.440Z,41.30
2019-05-07T10:55:07.438Z,40.11
2019-05-07T10:56:07.408Z,45.72
2019-05-07T10:57:07.421Z,45.87
2019-05-07T10:58:07.415Z,39.67
2019-05-07T10:59:07.419Z,40.16
2019-05-07T11:00:07.386Z,38.78
2019-05-07T11:01:07.357Z,40.01
2019-05-07T11:02:07.398Z,43.32
2019-05-07T11:03:07.355Z,41.13
2019-05-07T11:04:07.327Z,37.40
2019-05-07T11:05:07.316Z,41.13
2019-05-07T11:06:07.308Z,40.15
2019-05-07T11:07:07.342Z,47.75
2019-05-07T11:08:07.297Z,44.04
2019-05-07T11:09:07.287Z,43.92
2019-05-07T11:10:07.264Z,36.96
2019-05-07T11:11:07.256Z,44.06
2019-05-07T11:12:07.248Z,41.35
2019-05-07T11:13:07.265Z,47.02
2019-05-07T11:14:07.225Z,42.32
2019-05-07T11:15:07.226Z,41.61
2019-05-07T11:16:07.217Z,44.24
2019-05-07T11:17:07.197Z,45.87
2019-05-07T11:18:07.197Z,42.71
2019-05-07T11:19:07.181Z,39.60
2019-05-07T11:20:07.211Z,37.52
2019-05-07T11:21:07.158Z,39.43
2019-05-07T11:22:07.148Z,41.47
2019-05-07T11:23:07.146Z,43.85
2019-05-07T11:24:07.141Z,41.03
2019-05-07T11:25:07.127Z,43.83
2019-05-07T11:26:07.127Z,41.61
2019-05-07T11:27:07.091Z,39.22
2019-05-07T11:28:07.098Z,40.62
2019-05-07T11:29:07.186Z,41.61
2019-05-07T11:30:07.086Z,36.22
2019-05-07T11:31:07.057Z,50.22
2019-05-07T11:32:07.054Z,40.12
2019-05-07T11:33:07.207Z,38.14
2019-05-07T11:34:07.037Z,37.38
2019-05-07T11:35:07.018Z,43.12
2019-05-07T11:36:07.062Z,46.59
2019-05-07T11:37:06.995Z,43.19
2019-05-07T11:38:18.728Z,43.27
2019-05-07T11:39:08.097Z,42.69
2019-05-07T11:40:06.970Z,40.30
2019-05-07T11:41:06.954Z,41.02
2019-05-07T11:42:06.967Z,39.43
2019-05-07T11:43:06.955Z,40.85
2019-05-07T11:44:06.963Z,45.90
2019-05-07T11:45:06.910Z,43.52
2019-05-07T11:46:06.910Z,46.11
2019-05-07T11:47:06.892Z,47.16
2019-05-07T11:48:06.886Z,42.93
2019-05-07T11:49:06.952Z,43.29
2019-05-07T11:50:06.859Z,45.67
2019-05-07T11:51:06.853Z,45.05
2019-05-07T11:52:06.842Z,41.38
2019-05-07T11:53:06.829Z,42.76
2019-05-07T11:54:06.834Z,42.95
2019-05-07T11:55:06.819Z,40.25
2019-05-07T11:56:06.800Z,39.09
2019-05-07T11:57:06.794Z,40.85
2019-05-07T11:58:06.792Z,41.41
2019-05-07T11:59:06.779Z,42.21
2019-05-07T12:00:06.760Z,44.46
2019-05-07T12:01:06.749Z,46.46
2019-05-07T12:02:06.791Z,37.83
2019-05-07T12:03:06.742Z,40.85
2019-05-07T12:04:06.756Z,38.93
2019-05-07T12:05:06.711Z,38.93
2019-05-07T12:06:06.704Z,39.91
2019-05-07T12:07:06.708Z,43.04
2019-05-07T12:08:06.683Z,43.43
2019-05-07T12:09:06.697Z,39.81
2019-05-07T12:10:06.665Z,38.95
2019-05-07T12:11:06.686Z,38.63
2019-05-07T12:12:06.713Z,43.82
2019-05-07T12:13:06.629Z,39.97
2019-05-07T12:14:06.678Z,39.83
2019-05-07T12:15:06.654Z,40.21
2019-05-07T12:16:06.652Z,41.83
2019-05-07T12:17:06.607Z,41.49
2019-05-07T12:18:06.582Z,38.62
2019-05-07T12:19:06.668Z,43.48
2019-05-07T12:20:06.558Z,42.49
2019-05-07T12:21:17.487Z,45.17
2019-05-07T12:22:07.603Z,40.63
2019-05-07T12:23:06.530Z,43.40
2019-05-07T12:24:06.526Z,43.26
2019-05-07T12:25:06.519Z,45.94
2019-05-07T12:26:06.503Z,41.31
2019-05-07T12:27:06.518Z,43.29
2019-05-07T12:28:06.483Z,45.59
2019-05-07T12:29:06.477Z,41.49
2019-05-07T12:30:06.516Z,42.10
2019-05-07T12:31:06.448Z,41.61
2019-05-07T12:32:06.440Z,46.80
2019-05-07T12:33:06.486Z,43.53
2019-05-07T12:34:06.464Z,41.31
2019-05-07T12:35:06.404Z,43.71
2019-05-07T12:36:06.395Z,37.82
2019-05-07T12:37:06.394Z,36.16
2019-05-07T12:38:06.376Z,38.98
2019-05-07T12:39:06.366Z,44.15
2019-05-07T12:40:06.463Z,38.89
2019-05-07T12:41:06.349Z,44.17
2019-05-07T12:42:06.335Z,39.78
2019-05-07T12:43:06.339Z,38.36
2019-05-07T12:44:06.322Z,37.86
2019-05-07T12:45:06.371Z,35.89
2019-05-07T12:46:06.294Z,37.10
2019-05-07T12:47:06.285Z,40.58
2019-05-07T12:48:06.274Z,43.27
2019-05-07T12:49:06.271Z,44.55
2019-05-07T12:50:06.357Z,41.16
2019-05-07T12:51:06.263Z,45.53
2019-05-07T12:52:06.230Z,43.35
2019-05-07T12:53:06.221Z,44.67
2019-05-07T12:54:06.215Z,43.32
2019-05-07T12:55:06.211Z,45.66
2019-05-07T12:56:06.190Z,49.21
2019-05-07T12:57:06.216Z,45.45
2019-05-07T12:58:06.168Z,50.26
2019-05-07T12:59:06.160Z,41.71
2019-05-07T13:00:06.191Z,42.70
2019-05-07T13:01:06.139Z,46.65
2019-05-07T13:02:17.826Z,54.08
2019-05-07T13:03:07.119Z,49.04
2019-05-07T13:04:06.145Z,49.37
2019-05-07T13:05:06.112Z,46.26
2019-05-07T13:06:06.083Z,49.29
2019-05-07T13:07:06.073Z,52.82
2019-05-07T13:08:06.065Z,52.31
2019-05-07T13:09:06.051Z,51.40
2019-05-07T13:10:08.491Z,52.92
2019-05-07T13:11:06.077Z,49.79
2019-05-07T13:12:06.016Z,48.96
2019-05-07T13:13:06.005Z,49.19
2019-05-07T13:14:06.004Z,52.74
2019-05-07T13:15:06.009Z,50.52
2019-05-07T13:16:05.973Z,46.53
2019-05-07T13:17:05.965Z,50.98
2019-05-07T13:18:05.999Z,46.23
2019-05-07T13:19:05.941Z,46.45
2019-05-07T13:20:05.963Z,46.58
2019-05-07T13:21:05.935Z,46.20
2019-05-07T13:22:05.907Z,50.54
2019-05-07T13:23:05.908Z,51.43
2019-05-07T13:24:05.890Z,51.76
2019-05-07T13:25:05.898Z,56.07
2019-05-07T13:26:05.869Z,51.81
2019-05-07T13:27:05.869Z,52.21
2019-05-07T13:28:05.852Z,50.67
2019-05-07T13:29:05.946Z,50.16
2019-05-07T13:33:12.321Z,49.58
2019-05-07T13:34:07.868Z,53.72
2019-05-07T13:35:12.326Z,51.28
2019-05-07T13:35:45.888Z,48.37
2019-05-07T13:36:45.884Z,54.33
2019-05-07T13:37:45.871Z,47.77
2019-05-07T13:38:45.867Z,50.92
2019-05-07T13:39:45.903Z,52.94
2019-05-07T13:40:45.850Z,50.82
2019-05-07T13:41:45.833Z,52.14
2019-05-07T13:42:45.818Z,53.02
2019-05-07T13:43:45.854Z,50.80
2019-05-07T13:44:45.809Z,52.82
2019-05-07T13:45:48.875Z,52.92
2019-05-07T13:46:45.778Z,51.00
2019-05-07T13:47:45.758Z,45.67
2019-05-07T13:48:45.879Z,49.53
2019-05-07T13:49:45.737Z,51.25
2019-05-07T13:50:45.738Z,50.92
2019-05-07T13:51:45.741Z,53.14
2019-05-07T13:52:45.715Z,52.23
2019-05-07T13:53:45.712Z,49.81
2019-05-07T13:54:45.731Z,53.02
2019-05-07T13:55:45.724Z,50.92
2019-05-07T13:56:45.662Z,51.12
2019-05-07T13:57:45.655Z,52.01
2019-05-07T13:58:45.674Z,52.41
2019-05-07T13:59:45.641Z,54.10
2019-05-07T14:00:45.647Z,49.26
2019-05-07T14:01:45.617Z,53.93
2019-05-07T14:02:45.597Z,53.40
2019-05-07T14:03:45.619Z,53.20
2019-05-07T14:04:45.585Z,50.67
2019-05-07T14:05:45.570Z,51.18
2019-05-07T14:06:45.566Z,50.87
2019-05-07T14:07:45.543Z,53.40
2019-05-07T14:08:45.541Z,50.78
2019-05-07T14:09:45.519Z,49.58
2019-05-07T14:10:45.511Z,46.37
2019-05-07T14:11:45.609Z,50.92
2019-05-07T14:12:45.831Z,49.33
2019-05-07T14:13:45.473Z,47.33
2019-05-07T14:14:45.462Z,48.44
2019-05-07T14:15:45.501Z,51.07
2019-05-07T14:16:45.454Z,54.18
2019-05-07T14:17:45.447Z,51.15
2019-05-07T14:18:45.419Z,53.85
2019-05-07T14:19:45.436Z,52.44